Stations météo

réclame
Mon MeteoGroup
Comiso, Italie (16475): Température de l'air & dewpoint: 17.07.2018 07:00:00 - 23.07.2018 07:00:00 (CEST)Comiso, Italie (16475): Vitesse du vent: 17.07.2018 07:00:00 - 23.07.2018 07:00:00 (CEST)Comiso, Italie (16475): Direction du vent: 17.07.2018 07:00:00 - 23.07.2018 07:00:00 (CEST)Comiso, Italie (16475): visibility: 17.07.2018 07:00:00 - 23.07.2018 07:00:00 (CEST)
Date & Time tt [°C] td [°C] ff [km/h] ff [knt] dd vv [km]
23.07.2018 07:00:00 31,0 10,0 9 5 NE 10
23.07.2018 06:00:00 - - - - - -
23.07.2018 05:00:00 - - - - - -
23.07.2018 04:00:00 - - - - - -
23.07.2018 03:00:00 - - - - - -
23.07.2018 02:00:00 - - - - - -
23.07.2018 01:00:00 - - - - - -
23.07.2018 00:00:00 - - - - - -
22.07.2018 23:00:00 25,0 21,0 5 3 ENE 10
22.07.2018 22:00:00 26,0 22,0 8 4 N 10
22.07.2018 21:00:00 27,0 22,0 9 5 WNW 10
22.07.2018 20:00:00 29,0 22,0 8 4 W 10
22.07.2018 19:00:00 - - - - - -
22.07.2018 18:00:00 31,0 21,0 15 8 W 10
22.07.2018 17:00:00 32,0 19,0 18 10 W 10
22.07.2018 16:00:00 35,0 14,0 15 8 SW 10
22.07.2018 15:00:00 35,0 14,0 16 9 WSW 10
22.07.2018 14:00:00 35,0 11,0 13 7 W 10
22.07.2018 13:00:00 34,0 10,0 15 8 WSW 10
22.07.2018 12:00:00 34,0 9,0 13 7 WSW 10
22.07.2018 11:00:00 33,0 9,0 8 4 - 10
22.07.2018 10:00:00 31,0 9,0 5 3 WNW 10
22.07.2018 09:00:00 30,0 3,0 5 3 SSE 10
22.07.2018 08:00:00 24,0 10,0 5 3 E 10
22.07.2018 07:00:00 22,0 9,0 4 2 - 10
22.07.2018 06:00:00 - - - - - -
22.07.2018 05:00:00 - - - - - -
22.07.2018 04:00:00 - - - - - -
22.07.2018 03:00:00 - - - - - -
22.07.2018 02:00:00 - - - - - -
22.07.2018 01:00:00 - - - - - -
22.07.2018 00:00:00 - - - - - -
21.07.2018 23:00:00 23,0 14,0 5 3 ENE 10
21.07.2018 22:00:00 26,0 15,0 2 1 - 10
21.07.2018 21:00:00 28,0 15,0 5 3 SW 10
21.07.2018 20:00:00 31,0 10,0 9 5 WSW 10
21.07.2018 19:00:00 32,0 8,0 11 6 W 10
21.07.2018 18:00:00 33,0 7,0 13 7 W 10
21.07.2018 17:00:00 34,0 7,0 11 6 W 10
21.07.2018 16:00:00 33,0 7,0 15 8 WNW 10
21.07.2018 15:00:00 33,0 9,0 18 10 W 10
21.07.2018 14:00:00 33,0 12,0 13 7 W 10
21.07.2018 13:00:00 32,0 14,0 13 7 W 10
21.07.2018 12:00:00 30,0 17,0 13 7 WSW 10
21.07.2018 11:00:00 31,0 14,0 18 10 W 10
21.07.2018 10:00:00 30,0 10,0 11 6 WSW 10
21.07.2018 09:00:00 29,0 8,0 8 4 W 10
21.07.2018 08:00:00 25,0 13,0 4 2 - 10
21.07.2018 07:00:00 21,0 12,0 9 5 - 10
21.07.2018 06:00:00 - - - - - -
21.07.2018 05:00:00 - - - - - -
21.07.2018 04:00:00 - - - - - -
21.07.2018 03:00:00 - - - - - -
21.07.2018 02:00:00 - - - - - -
21.07.2018 01:00:00 - - - - - -
21.07.2018 00:00:00 - - - - - -
20.07.2018 23:00:00 23,0 14,0 5 3 E 10
20.07.2018 22:00:00 25,0 15,0 2 1 - 10
20.07.2018 21:00:00 26,0 15,0 4 2 - 10
20.07.2018 20:00:00 29,0 12,0 8 4 W 10
20.07.2018 19:00:00 31,0 11,0 16 9 WSW 10
20.07.2018 18:00:00 32,0 10,0 18 10 W 10
20.07.2018 17:00:00 33,0 8,0 11 6 WSW 10
20.07.2018 16:00:00 33,0 8,0 16 9 WSW 10
20.07.2018 15:00:00 33,0 9,0 21 11 WSW 10
20.07.2018 14:00:00 33,0 9,0 18 10 WSW 10
20.07.2018 13:00:00 33,0 12,0 21 11 WSW 10
20.07.2018 12:00:00 34,0 9,0 9 5 W 10
20.07.2018 11:00:00 33,0 7,0 5 3 - 10
20.07.2018 10:00:00 29,0 11,0 4 2 - 10
20.07.2018 09:00:00 27,0 13,0 4 2 - 10
20.07.2018 08:00:00 24,0 14,0 4 2 - 10
20.07.2018 07:00:00 20,0 13,0 5 3 NE 10
20.07.2018 06:00:00 - - - - - -
20.07.2018 05:00:00 - - - - - -
20.07.2018 04:00:00 - - - - - -
20.07.2018 03:00:00 - - - - - -
20.07.2018 02:00:00 - - - - - -
20.07.2018 01:00:00 - - - - - -
20.07.2018 00:00:00 - - - - - -
19.07.2018 23:00:00 22,0 19,0 2 1 - 10
19.07.2018 22:00:00 24,0 20,0 4 2 - 10
19.07.2018 21:00:00 25,0 21,0 8 4 SW 10
19.07.2018 20:00:00 27,0 20,0 9 5 W 10
19.07.2018 19:00:00 27,0 20,0 15 8 WSW 10
19.07.2018 18:00:00 29,0 20,0 24 13 WSW 10
19.07.2018 17:00:00 33,0 7,0 16 9 WSW 10
19.07.2018 16:00:00 32,0 12,0 16 9 WSW 10
19.07.2018 15:00:00 31,0 14,0 16 9 WSW 10
19.07.2018 14:00:00 32,0 15,0 22 12 WSW 10
19.07.2018 13:00:00 30,0 17,0 16 9 SW 10
19.07.2018 12:00:00 30,0 17,0 24 13 WSW 10
19.07.2018 11:00:00 30,0 16,0 16 9 W 10
19.07.2018 10:00:00 29,0 12,0 9 5 WSW 10
19.07.2018 09:00:00 29,0 11,0 4 2 - 10
19.07.2018 08:00:00 24,0 15,0 4 2 - 10
19.07.2018 07:00:00 20,0 12,0 8 4 ENE 10
19.07.2018 06:00:00 - - - - - -
19.07.2018 05:00:00 - - - - - -
19.07.2018 04:00:00 - - - - - -
19.07.2018 03:00:00 - - - - - -
19.07.2018 02:00:00 - - - - - -
19.07.2018 01:00:00 - - - - - -
19.07.2018 00:00:00 - - - - - -
18.07.2018 23:00:00 23,0 16,0 5 3 ENE 10
18.07.2018 22:00:00 25,0 17,0 2 1 - 10
18.07.2018 21:00:00 26,0 17,0 9 5 WSW 10
18.07.2018 20:00:00 28,0 16,0 8 4 SW 10
18.07.2018 19:00:00 29,0 16,0 9 5 WSW 10
18.07.2018 18:00:00 29,0 14,0 13 7 WSW 10
18.07.2018 17:00:00 30,0 14,0 11 6 SW 10
18.07.2018 16:00:00 30,0 15,0 16 9 W 10
18.07.2018 15:00:00 30,0 16,0 18 10 WSW 10
18.07.2018 14:00:00 30,0 16,0 18 10 WSW 10
18.07.2018 13:00:00 31,0 15,0 18 10 WSW 10
18.07.2018 12:00:00 32,0 11,0 15 8 N 10
18.07.2018 11:00:00 31,0 12,0 15 8 NNE 10
18.07.2018 10:00:00 29,0 15,0 5 3 - 10
18.07.2018 09:00:00 26,0 16,0 8 4 N 10
18.07.2018 08:00:00 25,0 16,0 4 2 - 10
18.07.2018 07:00:00 - - - - - -
18.07.2018 06:00:00 - - - - - -
18.07.2018 05:00:00 - - - - - -
18.07.2018 04:00:00 - - - - - -
18.07.2018 03:00:00 - - - - - -
18.07.2018 02:00:00 - - - - - -
18.07.2018 01:00:00 - - - - - -
18.07.2018 00:00:00 - - - - - -
17.07.2018 23:00:00 25,0 16,0 5 3 N 10
17.07.2018 22:00:00 26,0 15,0 4 2 - 10
17.07.2018 21:00:00 27,0 16,0 9 5 NW 10
17.07.2018 20:00:00 27,0 20,0 8 4 S 10
17.07.2018 19:00:00 28,0 19,0 8 4 - 10
17.07.2018 18:00:00 28,0 19,0 18 10 SW 10
17.07.2018 17:00:00 28,0 19,0 26 14 W 10
17.07.2018 16:00:00 28,0 19,0 37 20 W 10
17.07.2018 15:00:00 29,0 19,0 37 20 W 10
17.07.2018 14:00:00 28,0 19,0 37 20 W 10
17.07.2018 13:00:00 29,0 20,0 28 15 W 10
17.07.2018 12:00:00 28,0 19,0 24 13 W 10
17.07.2018 11:00:00 27,0 20,0 21 11 W 10
17.07.2018 10:00:00 26,0 20,0 13 7 WSW 10
17.07.2018 09:00:00 25,0 20,0 5 3 - 6
17.07.2018 08:00:00 23,0 21,0 4 2 - 6
17.07.2018 07:00:00 22,0 19,0 4 2 - 7

tt = Température de l'air
td = dewpoint
ff = Vitesse du vent
dd = Direction du vent
vv = visibility

stations d'obs. à proximité